Lynbrook, New York
Current Conditions -  °F | °C
As of 8:51 AM on Monday 24 Nov 2014 (Local Time) from KJFK Reporting Station
Haze Haze  
Wind Chill: 59°   Ceiling: 400
Heat Index: 59°   Visibility: 2mi
Dew Point: 57°   Wind: 18mph
Humidity: 93%   Direction: 180°S
Pressure: 29.72"   Gusts: NA
Location:  40.66°N, 73.67°W
Report Text: KJFK 241351Z 18016KT 2SM BR BKN004 BKN014 BKN250 15/14 A2972 RMK AO2 PK WND 18030/1316 SFC VIS 6 RAE1259 SLP064 P0000 T01500139 $
Loading
Personal Weather Stations






























Interactive Weather Map New forecast layout! Learn more

10-Day Weather Forecast

Advertisements
Track Severe Weather on mobile